sensor_id;sensor_type;location;lat;lon;timestamp;P1;durP1;ratioP1;P2;durP2;ratioP2
21000;SDS011;10658;50.920;12.238;2023-01-15T00:02:08;1.02;;;0.68;;
21000;SDS011;10658;50.920;12.238;2023-01-15T00:06:13;1.02;;;0.60;;
21000;SDS011;10658;50.920;12.238;2023-01-15T00:10:19;1.20;;;0.47;;
21000;SDS011;10658;50.920;12.238;2023-01-15T00:14:20;0.88;;;0.30;;
21000;SDS011;10658;50.920;12.238;2023-01-15T00:18:22;0.50;;;0.40;;
21000;SDS011;10658;50.920;12.238;2023-01-15T00:22:33;0.55;;;0.43;;
21000;SDS011;10658;50.920;12.238;2023-01-15T00:26:34;1.58;;;0.80;;
21000;SDS011;10658;50.920;12.238;2023-01-15T00:30:55;0.52;;;0.40;;
21000;SDS011;10658;50.920;12.238;2023-01-15T00:34:57;0.70;;;0.60;;
21000;SDS011;10658;50.920;12.238;2023-01-15T00:39:15;0.82;;;0.60;;
21000;SDS011;10658;50.920;12.238;2023-01-15T00:43:20;1.63;;;0.63;;
21000;SDS011;10658;50.920;12.238;2023-01-15T00:47:21;1.00;;;0.57;;
21000;SDS011;10658;50.920;12.238;2023-01-15T00:51:22;0.65;;;0.63;;
21000;SDS011;10658;50.920;12.238;2023-01-15T00:55:24;1.15;;;0.50;;
21000;SDS011;10658;50.920;12.238;2023-01-15T00:59:27;0.43;;;0.43;;
21000;SDS011;10658;50.920;12.238;2023-01-15T01:03:30;0.75;;;0.52;;
21000;SDS011;10658;50.920;12.238;2023-01-15T01:07:34;1.15;;;0.50;;
21000;SDS011;10658;50.920;12.238;2023-01-15T01:11:38;0.75;;;0.40;;
21000;SDS011;10658;50.920;12.238;2023-01-15T01:15:40;1.10;;;0.50;;
21000;SDS011;10658;50.920;12.238;2023-01-15T01:19:42;1.58;;;0.40;;
21000;SDS011;10658;50.920;12.238;2023-01-15T01:23:43;0.35;;;0.35;;
21000;SDS011;10658;50.920;12.238;2023-01-15T01:27:45;0.25;;;0.25;;
21000;SDS011;10658;50.920;12.238;2023-01-15T01:31:47;0.70;;;0.30;;
21000;SDS011;10658;50.920;12.238;2023-01-15T01:35:52;1.38;;;0.40;;
21000;SDS011;10658;50.920;12.238;2023-01-15T01:39:55;0.20;;;0.20;;
21000;SDS011;10658;50.920;12.238;2023-01-15T01:43:59;0.43;;;0.30;;
21000;SDS011;10658;50.920;12.238;2023-01-15T01:48:04;0.25;;;0.25;;
21000;SDS011;10658;50.920;12.238;2023-01-15T01:52:08;0.28;;;0.28;;
21000;SDS011;10658;50.920;12.238;2023-01-15T01:56:23;0.40;;;0.30;;
21000;SDS011;10658;50.920;12.238;2023-01-15T02:00:24;1.10;;;0.35;;
21000;SDS011;10658;50.920;12.238;2023-01-15T02:04:28;0.93;;;0.30;;
21000;SDS011;10658;50.920;12.238;2023-01-15T02:08:30;1.52;;;0.35;;
21000;SDS011;10658;50.920;12.238;2023-01-15T02:12:36;0.20;;;0.20;;
21000;SDS011;10658;50.920;12.238;2023-01-15T02:21:01;0.50;;;0.30;;
21000;SDS011;10658;50.920;12.238;2023-01-15T02:25:32;0.40;;;0.30;;
21000;SDS011;10658;50.920;12.238;2023-01-15T02:29:58;1.02;;;0.20;;
21000;SDS011;10658;50.920;12.238;2023-01-15T02:34:34;0.30;;;0.30;;
21000;SDS011;10658;50.920;12.238;2023-01-15T02:38:44;0.70;;;0.35;;
21000;SDS011;10658;50.920;12.238;2023-01-15T02:42:48;0.28;;;0.28;;
21000;SDS011;10658;50.920;12.238;2023-01-15T02:46:50;0.98;;;0.40;;
21000;SDS011;10658;50.920;12.238;2023-01-15T02:50:59;1.42;;;0.50;;
21000;SDS011;10658;50.920;12.238;2023-01-15T02:55:23;0.40;;;0.40;;
21000;SDS011;10658;50.920;12.238;2023-01-15T02:59:35;0.40;;;0.20;;
21000;SDS011;10658;50.920;12.238;2023-01-15T03:07:49;0.65;;;0.30;;
21000;SDS011;10658;50.920;12.238;2023-01-15T03:12:07;0.60;;;0.55;;
21000;SDS011;10658;50.920;12.238;2023-01-15T03:20:42;1.30;;;0.38;;
21000;SDS011;10658;50.920;12.238;2023-01-15T03:25:05;0.50;;;0.50;;
21000;SDS011;10658;50.920;12.238;2023-01-15T03:29:20;0.52;;;0.20;;
21000;SDS011;10658;50.920;12.238;2023-01-15T03:33:26;0.30;;;0.30;;
21000;SDS011;10658;50.920;12.238;2023-01-15T03:37:30;1.95;;;0.20;;
21000;SDS011;10658;50.920;12.238;2023-01-15T03:45:53;0.47;;;0.30;;
21000;SDS011;10658;50.920;12.238;2023-01-15T03:59:10;0.22;;;0.22;;
21000;SDS011;10658;50.920;12.238;2023-01-15T04:03:35;0.30;;;0.30;;
21000;SDS011;10658;50.920;12.238;2023-01-15T04:07:43;0.20;;;0.20;;
21000;SDS011;10658;50.920;12.238;2023-01-15T04:11:49;0.40;;;0.40;;
21000;SDS011;10658;50.920;12.238;2023-01-15T04:15:52;0.50;;;0.35;;
21000;SDS011;10658;50.920;12.238;2023-01-15T04:19:55;0.30;;;0.22;;
21000;SDS011;10658;50.920;12.238;2023-01-15T04:23:59;0.38;;;0.38;;
21000;SDS011;10658;50.920;12.238;2023-01-15T04:28:02;0.73;;;0.30;;
21000;SDS011;10658;50.920;12.238;2023-01-15T04:32:04;0.32;;;0.22;;
21000;SDS011;10658;50.920;12.238;2023-01-15T04:36:06;0.13;;;0.13;;
21000;SDS011;10658;50.920;12.238;2023-01-15T04:40:12;1.23;;;0.30;;
21000;SDS011;10658;50.920;12.238;2023-01-15T04:44:42;0.90;;;0.20;;
21000;SDS011;10658;50.920;12.238;2023-01-15T04:48:45;0.20;;;0.20;;
21000;SDS011;10658;50.920;12.238;2023-01-15T04:52:47;0.22;;;0.10;;
21000;SDS011;10658;50.920;12.238;2023-01-15T04:56:53;0.00;;;0.00;;
21000;SDS011;10658;50.920;12.238;2023-01-15T05:00:57;0.32;;;0.10;;
21000;SDS011;10658;50.920;12.238;2023-01-15T05:09:05;0.20;;;0.17;;
21000;SDS011;10658;50.920;12.238;2023-01-15T05:13:06;0.00;;;0.00;;
21000;SDS011;10658;50.920;12.238;2023-01-15T05:17:08;0.75;;;0.17;;
21000;SDS011;10658;50.920;12.238;2023-01-15T05:21:17;0.47;;;0.17;;
21000;SDS011;10658;50.920;12.238;2023-01-15T05:25:31;0.10;;;0.10;;
21000;SDS011;10658;50.920;12.238;2023-01-15T05:29:34;0.05;;;0.05;;
21000;SDS011;10658;50.920;12.238;2023-01-15T05:33:40;0.75;;;0.10;;
21000;SDS011;10658;50.920;12.238;2023-01-15T05:37:42;2.08;;;0.22;;
21000;SDS011;10658;50.920;12.238;2023-01-15T05:41:43;0.30;;;0.17;;
21000;SDS011;10658;50.920;12.238;2023-01-15T05:46:14;0.30;;;0.10;;
21000;SDS011;10658;50.920;12.238;2023-01-15T05:50:16;0.10;;;0.10;;
21000;SDS011;10658;50.920;12.238;2023-01-15T05:54:48;0.45;;;0.30;;
21000;SDS011;10658;50.920;12.238;2023-01-15T05:58:51;1.27;;;0.73;;
21000;SDS011;10658;50.920;12.238;2023-01-15T06:02:53;1.90;;;1.05;;
21000;SDS011;10658;50.920;12.238;2023-01-15T06:06:55;1.58;;;0.80;;
21000;SDS011;10658;50.920;12.238;2023-01-15T06:10:57;1.17;;;0.43;;
21000;SDS011;10658;50.920;12.238;2023-01-15T06:14:59;0.20;;;0.20;;
21000;SDS011;10658;50.920;12.238;2023-01-15T06:19:01;0.20;;;0.20;;
21000;SDS011;10658;50.920;12.238;2023-01-15T06:23:06;0.20;;;0.20;;
21000;SDS011;10658;50.920;12.238;2023-01-15T06:27:09;0.40;;;0.40;;
21000;SDS011;10658;50.920;12.238;2023-01-15T06:31:12;0.40;;;0.40;;
21000;SDS011;10658;50.920;12.238;2023-01-15T06:35:17;0.20;;;0.20;;
21000;SDS011;10658;50.920;12.238;2023-01-15T06:39:20;1.10;;;0.47;;
21000;SDS011;10658;50.920;12.238;2023-01-15T06:43:24;0.43;;;0.20;;
21000;SDS011;10658;50.920;12.238;2023-01-15T06:47:46;0.88;;;0.30;;
21000;SDS011;10658;50.920;12.238;2023-01-15T06:51:47;2.17;;;0.20;;
21000;SDS011;10658;50.920;12.238;2023-01-15T06:55:51;0.15;;;0.15;;
21000;SDS011;10658;50.920;12.238;2023-01-15T06:59:54;0.17;;;0.17;;
21000;SDS011;10658;50.920;12.238;2023-01-15T07:03:58;1.23;;;0.95;;
21000;SDS011;10658;50.920;12.238;2023-01-15T07:08:02;1.67;;;1.20;;
21000;SDS011;10658;50.920;12.238;2023-01-15T07:12:06;1.55;;;1.10;;
21000;SDS011;10658;50.920;12.238;2023-01-15T07:16:07;1.73;;;1.02;;
21000;SDS011;10658;50.920;12.238;2023-01-15T07:20:26;2.45;;;0.95;;
21000;SDS011;10658;50.920;12.238;2023-01-15T07:24:30;2.28;;;1.05;;
21000;SDS011;10658;50.920;12.238;2023-01-15T07:28:35;0.80;;;0.45;;
21000;SDS011;10658;50.920;12.238;2023-01-15T07:32:37;2.40;;;0.57;;
21000;SDS011;10658;50.920;12.238;2023-01-15T07:36:42;0.52;;;0.40;;
21000;SDS011;10658;50.920;12.238;2023-01-15T07:40:45;0.47;;;0.40;;
21000;SDS011;10658;50.920;12.238;2023-01-15T07:45:07;0.60;;;0.60;;
21000;SDS011;10658;50.920;12.238;2023-01-15T07:49:28;0.57;;;0.20;;
21000;SDS011;10658;50.920;12.238;2023-01-15T07:53:48;0.20;;;0.20;;
21000;SDS011;10658;50.920;12.238;2023-01-15T07:57:49;0.25;;;0.25;;
21000;SDS011;10658;50.920;12.238;2023-01-15T08:01:54;0.38;;;0.28;;
21000;SDS011;10658;50.920;12.238;2023-01-15T08:05:56;0.57;;;0.30;;
21000;SDS011;10658;50.920;12.238;2023-01-15T08:09:57;0.30;;;0.25;;
21000;SDS011;10658;50.920;12.238;2023-01-15T08:14:00;0.90;;;0.20;;
21000;SDS011;10658;50.920;12.238;2023-01-15T08:18:21;0.20;;;0.20;;
21000;SDS011;10658;50.920;12.238;2023-01-15T08:22:23;1.02;;;0.43;;
21000;SDS011;10658;50.920;12.238;2023-01-15T08:26:25;0.22;;;0.22;;
21000;SDS011;10658;50.920;12.238;2023-01-15T08:30:27;0.35;;;0.35;;
21000;SDS011;10658;50.920;12.238;2023-01-15T08:34:30;1.05;;;0.80;;
21000;SDS011;10658;50.920;12.238;2023-01-15T08:38:31;0.65;;;0.60;;
21000;SDS011;10658;50.920;12.238;2023-01-15T08:42:36;1.13;;;1.02;;
21000;SDS011;10658;50.920;12.238;2023-01-15T08:46:44;2.20;;;0.90;;
21000;SDS011;10658;50.920;12.238;2023-01-15T08:50:47;0.55;;;0.25;;
21000;SDS011;10658;50.920;12.238;2023-01-15T08:54:54;0.10;;;0.10;;
21000;SDS011;10658;50.920;12.238;2023-01-15T08:58:57;0.43;;;0.43;;
21000;SDS011;10658;50.920;12.238;2023-01-15T09:03:01;0.60;;;0.38;;
21000;SDS011;10658;50.920;12.238;2023-01-15T09:07:04;0.90;;;0.75;;
21000;SDS011;10658;50.920;12.238;2023-01-15T09:11:08;0.65;;;0.57;;
21000;SDS011;10658;50.920;12.238;2023-01-15T09:15:13;0.93;;;0.40;;
21000;SDS011;10658;50.920;12.238;2023-01-15T09:19:15;1.35;;;0.82;;
21000;SDS011;10658;50.920;12.238;2023-01-15T09:23:18;0.70;;;0.43;;
21000;SDS011;10658;50.920;12.238;2023-01-15T09:27:19;1.38;;;0.43;;
21000;SDS011;10658;50.920;12.238;2023-01-15T09:31:21;1.27;;;1.13;;
21000;SDS011;10658;50.920;12.238;2023-01-15T09:35:29;2.50;;;1.00;;
21000;SDS011;10658;50.920;12.238;2023-01-15T09:39:36;1.20;;;1.08;;
21000;SDS011;10658;50.920;12.238;2023-01-15T09:43:48;1.67;;;1.10;;
21000;SDS011;10658;50.920;12.238;2023-01-15T09:48:08;0.80;;;0.52;;
21000;SDS011;10658;50.920;12.238;2023-01-15T10:49:28;3.95;;;2.75;;
21000;SDS011;10658;50.920;12.238;2023-01-15T11:12:47;0.70;;;0.50;;
21000;SDS011;10658;50.920;12.238;2023-01-15T11:16:50;0.30;;;0.30;;
21000;SDS011;10658;50.920;12.238;2023-01-15T11:21:16;0.60;;;0.35;;
21000;SDS011;10658;50.920;12.238;2023-01-15T11:25:27;0.57;;;0.35;;
21000;SDS011;10658;50.920;12.238;2023-01-15T11:29:33;1.95;;;0.80;;
21000;SDS011;10658;50.920;12.238;2023-01-15T11:33:39;1.80;;;0.80;;
21000;SDS011;10658;50.920;12.238;2023-01-15T11:37:46;0.95;;;0.60;;
21000;SDS011;10658;50.920;12.238;2023-01-15T11:41:48;0.90;;;0.80;;
21000;SDS011;10658;50.920;12.238;2023-01-15T11:46:22;0.60;;;0.50;;
21000;SDS011;10658;50.920;12.238;2023-01-15T11:50:59;0.17;;;0.17;;
21000;SDS011;10658;50.920;12.238;2023-01-15T11:55:13;1.77;;;0.95;;
21000;SDS011;10658;50.920;12.238;2023-01-15T11:59:18;0.60;;;0.15;;
21000;SDS011;10658;50.920;12.238;2023-01-15T12:03:21;1.65;;;1.00;;
21000;SDS011;10658;50.920;12.238;2023-01-15T12:07:26;1.13;;;0.90;;
21000;SDS011;10658;50.920;12.238;2023-01-15T12:11:38;1.25;;;0.40;;
21000;SDS011;10658;50.920;12.238;2023-01-15T12:37:37;0.20;;;0.20;;
21000;SDS011;10658;50.920;12.238;2023-01-15T12:41:47;0.30;;;0.30;;
21000;SDS011;10658;50.920;12.238;2023-01-15T12:46:22;0.45;;;0.40;;
21000;SDS011;10658;50.920;12.238;2023-01-15T12:54:47;1.00;;;0.82;;
21000;SDS011;10658;50.920;12.238;2023-01-15T13:11:41;1.88;;;1.27;;
21000;SDS011;10658;50.920;12.238;2023-01-15T13:16:00;0.20;;;0.20;;
21000;SDS011;10658;50.920;12.238;2023-01-15T13:20:19;0.77;;;0.65;;
21000;SDS011;10658;50.920;12.238;2023-01-15T13:29:15;5.90;;;1.88;;
21000;SDS011;10658;50.920;12.238;2023-01-15T13:33:42;4.72;;;2.08;;
21000;SDS011;10658;50.920;12.238;2023-01-15T13:37:50;1.92;;;0.70;;
21000;SDS011;10658;50.920;12.238;2023-01-15T13:41:54;3.47;;;1.65;;
21000;SDS011;10658;50.920;12.238;2023-01-15T13:46:18;4.57;;;2.22;;
21000;SDS011;10658;50.920;12.238;2023-01-15T13:50:26;3.83;;;1.33;;
21000;SDS011;10658;50.920;12.238;2023-01-15T13:54:31;0.20;;;0.20;;
21000;SDS011;10658;50.920;12.238;2023-01-15T13:58:51;2.35;;;1.35;;
21000;SDS011;10658;50.920;12.238;2023-01-15T14:03:02;1.67;;;1.00;;
21000;SDS011;10658;50.920;12.238;2023-01-15T14:07:30;2.78;;;1.25;;
21000;SDS011;10658;50.920;12.238;2023-01-15T14:15:59;0.73;;;0.60;;
21000;SDS011;10658;50.920;12.238;2023-01-15T14:29:14;0.60;;;0.40;;
21000;SDS011;10658;50.920;12.238;2023-01-15T14:34:07;0.80;;;0.52;;
21000;SDS011;10658;50.920;12.238;2023-01-15T14:38:18;0.93;;;0.30;;
21000;SDS011;10658;50.920;12.238;2023-01-15T14:46:48;1.23;;;0.70;;
21000;SDS011;10658;50.920;12.238;2023-01-15T14:51:33;0.70;;;0.52;;
21000;SDS011;10658;50.920;12.238;2023-01-15T14:55:32;1.60;;;0.70;;
21000;SDS011;10658;50.920;12.238;2023-01-15T15:03:55;1.05;;;0.60;;
21000;SDS011;10658;50.920;12.238;2023-01-15T15:08:08;1.13;;;0.70;;
21000;SDS011;10658;50.920;12.238;2023-01-15T15:16:41;3.63;;;1.10;;
21000;SDS011;10658;50.920;12.238;2023-01-15T15:25:09;0.85;;;0.60;;
21000;SDS011;10658;50.920;12.238;2023-01-15T15:34:37;1.63;;;0.43;;
21000;SDS011;10658;50.920;12.238;2023-01-15T15:44:08;0.90;;;0.50;;
21000;SDS011;10658;50.920;12.238;2023-01-15T15:48:42;0.82;;;0.60;;
21000;SDS011;10658;50.920;12.238;2023-01-15T15:52:48;3.05;;;0.75;;
21000;SDS011;10658;50.920;12.238;2023-01-15T15:56:58;6.10;;;2.58;;
21000;SDS011;10658;50.920;12.238;2023-01-15T16:01:02;4.13;;;2.25;;
21000;SDS011;10658;50.920;12.238;2023-01-15T16:09:22;9.35;;;4.43;;
21000;SDS011;10658;50.920;12.238;2023-01-15T16:17:45;5.72;;;2.95;;
21000;SDS011;10658;50.920;12.238;2023-01-15T16:21:49;5.85;;;1.77;;
21000;SDS011;10658;50.920;12.238;2023-01-15T16:34:17;5.63;;;1.38;;
21000;SDS011;10658;50.920;12.238;2023-01-15T16:38:22;4.07;;;2.10;;
21000;SDS011;10658;50.920;12.238;2023-01-15T16:42:25;0.80;;;0.50;;
21000;SDS011;10658;50.920;12.238;2023-01-15T16:46:28;2.25;;;0.85;;
21000;SDS011;10658;50.920;12.238;2023-01-15T16:50:33;0.80;;;0.75;;
21000;SDS011;10658;50.920;12.238;2023-01-15T16:58:39;1.52;;;1.08;;
21000;SDS011;10658;50.920;12.238;2023-01-15T17:02:41;3.92;;;1.65;;
21000;SDS011;10658;50.920;12.238;2023-01-15T17:06:52;2.67;;;1.27;;
21000;SDS011;10658;50.920;12.238;2023-01-15T17:11:21;2.35;;;1.40;;
21000;SDS011;10658;50.920;12.238;2023-01-15T17:19:27;1.60;;;1.42;;
21000;SDS011;10658;50.920;12.238;2023-01-15T18:06:18;1.83;;;1.08;;
21000;SDS011;10658;50.920;12.238;2023-01-15T18:10:22;2.05;;;0.77;;
21000;SDS011;10658;50.920;12.238;2023-01-15T18:14:25;1.08;;;0.80;;
21000;SDS011;10658;50.920;12.238;2023-01-15T18:18:26;1.48;;;0.70;;
21000;SDS011;10658;50.920;12.238;2023-01-15T18:22:28;1.08;;;0.70;;
21000;SDS011;10658;50.920;12.238;2023-01-15T18:26:29;4.10;;;2.25;;
21000;SDS011;10658;50.920;12.238;2023-01-15T18:30:30;4.10;;;1.63;;
21000;SDS011;10658;50.920;12.238;2023-01-15T18:34:35;1.85;;;1.25;;
21000;SDS011;10658;50.920;12.238;2023-01-15T18:38:37;1.15;;;0.82;;
21000;SDS011;10658;50.920;12.238;2023-01-15T18:42:40;2.47;;;1.27;;
21000;SDS011;10658;50.920;12.238;2023-01-15T18:47:02;2.75;;;1.52;;
21000;SDS011;10658;50.920;12.238;2023-01-15T18:51:06;3.45;;;1.45;;
21000;SDS011;10658;50.920;12.238;2023-01-15T18:59:44;4.70;;;1.60;;
21000;SDS011;10658;50.920;12.238;2023-01-15T19:03:48;4.95;;;2.60;;
21000;SDS011;10658;50.920;12.238;2023-01-15T19:07:49;5.82;;;2.17;;
21000;SDS011;10658;50.920;12.238;2023-01-15T19:11:51;6.93;;;3.45;;
21000;SDS011;10658;50.920;12.238;2023-01-15T19:15:52;10.82;;;4.75;;
21000;SDS011;10658;50.920;12.238;2023-01-15T19:20:12;4.38;;;2.15;;
21000;SDS011;10658;50.920;12.238;2023-01-15T19:24:16;3.30;;;1.40;;
21000;SDS011;10658;50.920;12.238;2023-01-15T19:28:20;2.63;;;1.50;;
21000;SDS011;10658;50.920;12.238;2023-01-15T19:32:23;5.60;;;1.90;;
21000;SDS011;10658;50.920;12.238;2023-01-15T19:36:25;4.50;;;1.23;;
21000;SDS011;10658;50.920;12.238;2023-01-15T19:40:26;3.10;;;1.23;;
21000;SDS011;10658;50.920;12.238;2023-01-15T19:44:29;5.43;;;2.78;;
21000;SDS011;10658;50.920;12.238;2023-01-15T19:48:49;4.35;;;1.88;;
21000;SDS011;10658;50.920;12.238;2023-01-15T19:53:09;2.08;;;1.30;;
21000;SDS011;10658;50.920;12.238;2023-01-15T19:57:11;3.13;;;1.27;;
21000;SDS011;10658;50.920;12.238;2023-01-15T20:01:13;4.75;;;2.38;;
21000;SDS011;10658;50.920;12.238;2023-01-15T20:05:17;2.75;;;1.85;;
21000;SDS011;10658;50.920;12.238;2023-01-15T20:09:19;3.88;;;2.10;;
21000;SDS011;10658;50.920;12.238;2023-01-15T20:13:21;3.63;;;1.70;;
21000;SDS011;10658;50.920;12.238;2023-01-15T20:17:41;4.38;;;2.22;;
21000;SDS011;10658;50.920;12.238;2023-01-15T20:21:43;4.88;;;2.15;;
21000;SDS011;10658;50.920;12.238;2023-01-15T20:25:44;4.60;;;2.40;;
21000;SDS011;10658;50.920;12.238;2023-01-15T20:29:49;2.13;;;1.15;;
21000;SDS011;10658;50.920;12.238;2023-01-15T20:34:03;1.13;;;0.75;;
21000;SDS011;10658;50.920;12.238;2023-01-15T20:38:04;2.38;;;0.85;;
21000;SDS011;10658;50.920;12.238;2023-01-15T20:42:06;2.97;;;1.40;;
21000;SDS011;10658;50.920;12.238;2023-01-15T20:46:27;1.88;;;1.00;;
21000;SDS011;10658;50.920;12.238;2023-01-15T20:50:29;0.50;;;0.50;;
21000;SDS011;10658;50.920;12.238;2023-01-15T20:54:32;1.05;;;0.55;;
21000;SDS011;10658;50.920;12.238;2023-01-15T20:58:34;0.35;;;0.32;;
21000;SDS011;10658;50.920;12.238;2023-01-15T21:02:35;1.05;;;0.63;;
21000;SDS011;10658;50.920;12.238;2023-01-15T21:06:37;3.22;;;0.63;;
21000;SDS011;10658;50.920;12.238;2023-01-15T21:10:38;2.13;;;0.90;;
21000;SDS011;10658;50.920;12.238;2023-01-15T21:14:41;1.38;;;0.77;;
21000;SDS011;10658;50.920;12.238;2023-01-15T21:18:42;1.20;;;1.08;;
21000;SDS011;10658;50.920;12.238;2023-01-15T21:22:45;2.70;;;1.15;;
21000;SDS011;10658;50.920;12.238;2023-01-15T21:26:47;1.00;;;0.90;;
21000;SDS011;10658;50.920;12.238;2023-01-15T21:30:48;4.85;;;0.90;;
21000;SDS011;10658;50.920;12.238;2023-01-15T21:34:49;1.77;;;1.17;;
21000;SDS011;10658;50.920;12.238;2023-01-15T21:38:50;1.00;;;0.47;;
21000;SDS011;10658;50.920;12.238;2023-01-15T21:42:54;2.03;;;0.65;;
21000;SDS011;10658;50.920;12.238;2023-01-15T21:47:15;1.85;;;0.73;;
21000;SDS011;10658;50.920;12.238;2023-01-15T21:51:18;2.20;;;0.85;;
21000;SDS011;10658;50.920;12.238;2023-01-15T21:55:19;0.50;;;0.50;;
21000;SDS011;10658;50.920;12.238;2023-01-15T21:59:21;1.33;;;0.77;;
21000;SDS011;10658;50.920;12.238;2023-01-15T22:03:23;0.90;;;0.90;;
21000;SDS011;10658;50.920;12.238;2023-01-15T22:07:25;1.00;;;0.70;;
21000;SDS011;10658;50.920;12.238;2023-01-15T22:11:26;1.42;;;1.23;;
21000;SDS011;10658;50.920;12.238;2023-01-15T22:15:43;2.03;;;1.10;;
21000;SDS011;10658;50.920;12.238;2023-01-15T22:19:52;2.85;;;1.30;;
21000;SDS011;10658;50.920;12.238;2023-01-15T22:23:53;1.88;;;1.00;;
21000;SDS011;10658;50.920;12.238;2023-01-15T22:27:55;1.35;;;1.00;;
21000;SDS011;10658;50.920;12.238;2023-01-15T22:31:59;0.50;;;0.50;;
21000;SDS011;10658;50.920;12.238;2023-01-15T22:36:01;3.42;;;1.13;;
21000;SDS011;10658;50.920;12.238;2023-01-15T22:40:02;5.20;;;1.45;;
21000;SDS011;10658;50.920;12.238;2023-01-15T22:44:04;1.50;;;0.80;;
21000;SDS011;10658;50.920;12.238;2023-01-15T22:48:08;1.17;;;0.77;;
21000;SDS011;10658;50.920;12.238;2023-01-15T22:52:11;2.55;;;1.02;;
21000;SDS011;10658;50.920;12.238;2023-01-15T22:56:12;1.00;;;0.90;;
21000;SDS011;10658;50.920;12.238;2023-01-15T23:00:13;2.67;;;1.02;;
21000;SDS011;10658;50.920;12.238;2023-01-15T23:04:16;4.05;;;1.25;;
21000;SDS011;10658;50.920;12.238;2023-01-15T23:08:19;7.20;;;0.77;;
21000;SDS011;10658;50.920;12.238;2023-01-15T23:12:20;2.42;;;1.30;;
21000;SDS011;10658;50.920;12.238;2023-01-15T23:16:21;1.38;;;0.98;;
21000;SDS011;10658;50.920;12.238;2023-01-15T23:20:35;7.78;;;1.38;;
21000;SDS011;10658;50.920;12.238;2023-01-15T23:24:35;2.65;;;1.10;;
21000;SDS011;10658;50.920;12.238;2023-01-15T23:28:36;0.77;;;0.57;;
21000;SDS011;10658;50.920;12.238;2023-01-15T23:32:38;3.70;;;1.10;;
21000;SDS011;10658;50.920;12.238;2023-01-15T23:36:39;1.63;;;0.98;;
21000;SDS011;10658;50.920;12.238;2023-01-15T23:40:40;4.30;;;1.38;;
21000;SDS011;10658;50.920;12.238;2023-01-15T23:44:42;1.60;;;0.82;;
21000;SDS011;10658;50.920;12.238;2023-01-15T23:49:07;1.67;;;1.00;;
21000;SDS011;10658;50.920;12.238;2023-01-15T23:53:09;1.75;;;0.70;;
21000;SDS011;10658;50.920;12.238;2023-01-15T23:57:17;1.25;;;0.90;;
